sensor_id;sensor_type;location;lat;lon;timestamp;temperature;humidity
20171;DHT22;10245;51.344;6.620;2023-12-29T00:00:06;11.00;76.20
20171;DHT22;10245;51.344;6.620;2023-12-29T00:02:32;11.00;76.20
20171;DHT22;10245;51.344;6.620;2023-12-29T00:04:55;11.00;76.20
20171;DHT22;10245;51.344;6.620;2023-12-29T00:07:18;11.00;76.20
20171;DHT22;10245;51.344;6.620;2023-12-29T00:09:43;11.10;76.00
20171;DHT22;10245;51.344;6.620;2023-12-29T00:12:06;11.10;75.70
20171;DHT22;10245;51.344;6.620;2023-12-29T00:14:33;11.10;76.00
20171;DHT22;10245;51.344;6.620;2023-12-29T00:16:56;11.10;76.30
20171;DHT22;10245;51.344;6.620;2023-12-29T00:19:19;11.00;76.20
20171;DHT22;10245;51.344;6.620;2023-12-29T00:21:43;11.00;76.10
20171;DHT22;10245;51.344;6.620;2023-12-29T00:24:07;11.10;76.10
20171;DHT22;10245;51.344;6.620;2023-12-29T00:26:30;11.10;75.80
20171;DHT22;10245;51.344;6.620;2023-12-29T00:28:54;11.10;76.10
20171;DHT22;10245;51.344;6.620;2023-12-29T00:31:19;11.10;76.20
20171;DHT22;10245;51.344;6.620;2023-12-29T00:33:43;11.10;76.00
20171;DHT22;10245;51.344;6.620;2023-12-29T00:36:07;11.10;75.80
20171;DHT22;10245;51.344;6.620;2023-12-29T00:38:31;11.10;75.80
20171;DHT22;10245;51.344;6.620;2023-12-29T00:40:54;11.10;75.90
20171;DHT22;10245;51.344;6.620;2023-12-29T00:43:17;11.10;75.90
20171;DHT22;10245;51.344;6.620;2023-12-29T00:45:40;11.20;75.60
20171;DHT22;10245;51.344;6.620;2023-12-29T00:48:06;11.20;75.50
20171;DHT22;10245;51.344;6.620;2023-12-29T00:50:31;11.20;75.60
20171;DHT22;10245;51.344;6.620;2023-12-29T00:52:54;11.30;75.70
20171;DHT22;10245;51.344;6.620;2023-12-29T00:55:17;11.20;75.80
20171;DHT22;10245;51.344;6.620;2023-12-29T00:57:42;11.20;75.60
20171;DHT22;10245;51.344;6.620;2023-12-29T01:00:10;11.30;75.40
20171;DHT22;10245;51.344;6.620;2023-12-29T01:02:35;11.30;75.60
20171;DHT22;10245;51.344;6.620;2023-12-29T01:04:59;11.20;75.70
20171;DHT22;10245;51.344;6.620;2023-12-29T01:07:23;11.20;75.60
20171;DHT22;10245;51.344;6.620;2023-12-29T01:09:47;11.20;75.90
20171;DHT22;10245;51.344;6.620;2023-12-29T01:12:12;11.10;76.20
20171;DHT22;10245;51.344;6.620;2023-12-29T01:14:37;11.10;76.00
20171;DHT22;10245;51.344;6.620;2023-12-29T01:17:01;11.10;76.10
20171;DHT22;10245;51.344;6.620;2023-12-29T01:19:25;11.10;76.10
20171;DHT22;10245;51.344;6.620;2023-12-29T01:21:50;11.00;76.20
20171;DHT22;10245;51.344;6.620;2023-12-29T01:24:13;11.00;76.30
20171;DHT22;10245;51.344;6.620;2023-12-29T01:26:38;11.00;76.30
20171;DHT22;10245;51.344;6.620;2023-12-29T01:29:02;11.00;76.30
20171;DHT22;10245;51.344;6.620;2023-12-29T01:31:29;11.00;76.50
20171;DHT22;10245;51.344;6.620;2023-12-29T01:33:53;11.00;76.60
20171;DHT22;10245;51.344;6.620;2023-12-29T01:36:17;11.00;76.50
20171;DHT22;10245;51.344;6.620;2023-12-29T01:38:47;11.00;76.70
20171;DHT22;10245;51.344;6.620;2023-12-29T01:41:11;11.00;76.60
20171;DHT22;10245;51.344;6.620;2023-12-29T01:43:34;11.00;76.90
20171;DHT22;10245;51.344;6.620;2023-12-29T01:45:58;11.00;76.70
20171;DHT22;10245;51.344;6.620;2023-12-29T01:48:22;11.00;76.70
20171;DHT22;10245;51.344;6.620;2023-12-29T01:50:47;11.00;77.10
20171;DHT22;10245;51.344;6.620;2023-12-29T01:53:10;11.00;76.90
20171;DHT22;10245;51.344;6.620;2023-12-29T01:55:36;11.00;77.60
20171;DHT22;10245;51.344;6.620;2023-12-29T01:58:00;10.90;78.00
20171;DHT22;10245;51.344;6.620;2023-12-29T02:00:26;10.90;78.40
20171;DHT22;10245;51.344;6.620;2023-12-29T02:02:50;10.90;78.30
20171;DHT22;10245;51.344;6.620;2023-12-29T02:05:15;10.80;79.50
20171;DHT22;10245;51.344;6.620;2023-12-29T02:07:40;10.70;80.30
20171;DHT22;10245;51.344;6.620;2023-12-29T02:10:05;10.70;81.00
20171;DHT22;10245;51.344;6.620;2023-12-29T02:12:30;10.50;81.50
20171;DHT22;10245;51.344;6.620;2023-12-29T02:14:54;10.50;82.50
20171;DHT22;10245;51.344;6.620;2023-12-29T02:17:22;10.40;82.70
20171;DHT22;10245;51.344;6.620;2023-12-29T02:19:49;10.40;83.00
20171;DHT22;10245;51.344;6.620;2023-12-29T02:22:14;10.40;83.20
20171;DHT22;10245;51.344;6.620;2023-12-29T02:24:38;10.30;83.90
20171;DHT22;10245;51.344;6.620;2023-12-29T02:27:11;10.30;83.40
20171;DHT22;10245;51.344;6.620;2023-12-29T02:29:45;10.40;83.70
20171;DHT22;10245;51.344;6.620;2023-12-29T02:32:15;10.30;83.60
20171;DHT22;10245;51.344;6.620;2023-12-29T02:34:40;10.40;82.80
20171;DHT22;10245;51.344;6.620;2023-12-29T02:37:04;10.40;83.10
20171;DHT22;10245;51.344;6.620;2023-12-29T02:39:28;10.40;83.00
20171;DHT22;10245;51.344;6.620;2023-12-29T02:41:51;10.50;82.70
20171;DHT22;10245;51.344;6.620;2023-12-29T02:44:16;10.40;83.10
20171;DHT22;10245;51.344;6.620;2023-12-29T02:46:40;10.40;83.50
20171;DHT22;10245;51.344;6.620;2023-12-29T02:49:03;10.40;83.20
20171;DHT22;10245;51.344;6.620;2023-12-29T02:51:27;10.40;83.40
20171;DHT22;10245;51.344;6.620;2023-12-29T02:53:52;10.40;83.60
20171;DHT22;10245;51.344;6.620;2023-12-29T02:56:16;10.40;83.50
20171;DHT22;10245;51.344;6.620;2023-12-29T02:58:39;10.40;83.60
20171;DHT22;10245;51.344;6.620;2023-12-29T03:01:04;10.40;83.70
20171;DHT22;10245;51.344;6.620;2023-12-29T03:03:29;10.30;83.50
20171;DHT22;10245;51.344;6.620;2023-12-29T03:05:52;10.40;83.40
20171;DHT22;10245;51.344;6.620;2023-12-29T03:08:15;10.40;83.50
20171;DHT22;10245;51.344;6.620;2023-12-29T03:10:39;10.40;83.10
20171;DHT22;10245;51.344;6.620;2023-12-29T03:13:02;10.40;83.40
20171;DHT22;10245;51.344;6.620;2023-12-29T03:15:26;10.40;83.20
20171;DHT22;10245;51.344;6.620;2023-12-29T03:17:50;10.50;83.20
20171;DHT22;10245;51.344;6.620;2023-12-29T03:20:16;10.50;82.80
20171;DHT22;10245;51.344;6.620;2023-12-29T03:22:39;10.40;82.90
20171;DHT22;10245;51.344;6.620;2023-12-29T03:25:02;10.50;82.70
20171;DHT22;10245;51.344;6.620;2023-12-29T03:27:26;10.50;82.80
20171;DHT22;10245;51.344;6.620;2023-12-29T03:29:50;10.50;82.40
20171;DHT22;10245;51.344;6.620;2023-12-29T03:32:15;10.50;82.20
20171;DHT22;10245;51.344;6.620;2023-12-29T03:34:40;10.50;82.20
20171;DHT22;10245;51.344;6.620;2023-12-29T03:37:04;10.50;82.10
20171;DHT22;10245;51.344;6.620;2023-12-29T03:39:28;10.70;81.60
20171;DHT22;10245;51.344;6.620;2023-12-29T03:41:51;10.70;81.10
20171;DHT22;10245;51.344;6.620;2023-12-29T03:44:17;10.70;81.30
20171;DHT22;10245;51.344;6.620;2023-12-29T03:46:40;10.70;80.70
20171;DHT22;10245;51.344;6.620;2023-12-29T03:49:05;10.80;80.60
20171;DHT22;10245;51.344;6.620;2023-12-29T03:51:30;10.90;79.80
20171;DHT22;10245;51.344;6.620;2023-12-29T03:53:54;10.80;80.20
20171;DHT22;10245;51.344;6.620;2023-12-29T03:56:18;10.90;80.30
20171;DHT22;10245;51.344;6.620;2023-12-29T03:58:41;10.90;80.20
20171;DHT22;10245;51.344;6.620;2023-12-29T04:01:09;10.90;80.10
20171;DHT22;10245;51.344;6.620;2023-12-29T04:03:34;10.90;79.90
20171;DHT22;10245;51.344;6.620;2023-12-29T04:05:58;11.00;79.60
20171;DHT22;10245;51.344;6.620;2023-12-29T04:08:23;11.00;79.40
20171;DHT22;10245;51.344;6.620;2023-12-29T04:10:47;11.00;79.50
20171;DHT22;10245;51.344;6.620;2023-12-29T04:13:10;11.00;79.70
20171;DHT22;10245;51.344;6.620;2023-12-29T04:15:35;11.00;79.20
20171;DHT22;10245;51.344;6.620;2023-12-29T04:17:58;11.00;79.50
20171;DHT22;10245;51.344;6.620;2023-12-29T04:20:22;11.00;79.90
20171;DHT22;10245;51.344;6.620;2023-12-29T04:22:46;11.00;80.00
20171;DHT22;10245;51.344;6.620;2023-12-29T04:25:11;10.80;80.60
20171;DHT22;10245;51.344;6.620;2023-12-29T04:27:35;10.80;81.00
20171;DHT22;10245;51.344;6.620;2023-12-29T04:29:58;10.70;81.30
20171;DHT22;10245;51.344;6.620;2023-12-29T04:32:21;10.60;81.80
20171;DHT22;10245;51.344;6.620;2023-12-29T04:34:45;10.60;81.90
20171;DHT22;10245;51.344;6.620;2023-12-29T04:37:08;10.60;82.00
20171;DHT22;10245;51.344;6.620;2023-12-29T04:39:32;10.50;82.20
20171;DHT22;10245;51.344;6.620;2023-12-29T04:41:59;10.60;82.00
20171;DHT22;10245;51.344;6.620;2023-12-29T04:44:23;10.50;82.10
20171;DHT22;10245;51.344;6.620;2023-12-29T04:46:46;10.60;82.00
20171;DHT22;10245;51.344;6.620;2023-12-29T04:49:09;10.60;81.40
20171;DHT22;10245;51.344;6.620;2023-12-29T04:51:33;10.60;81.10
20171;DHT22;10245;51.344;6.620;2023-12-29T04:53:56;10.50;81.10
20171;DHT22;10245;51.344;6.620;2023-12-29T04:56:20;10.70;80.40
20171;DHT22;10245;51.344;6.620;2023-12-29T04:58:45;10.70;80.30
20171;DHT22;10245;51.344;6.620;2023-12-29T05:01:08;10.60;80.50
20171;DHT22;10245;51.344;6.620;2023-12-29T05:03:32;10.60;80.20
20171;DHT22;10245;51.344;6.620;2023-12-29T05:05:56;10.60;79.90
20171;DHT22;10245;51.344;6.620;2023-12-29T05:08:19;10.70;79.90
20171;DHT22;10245;51.344;6.620;2023-12-29T05:10:43;10.80;79.10
20171;DHT22;10245;51.344;6.620;2023-12-29T05:13:07;10.80;79.20
20171;DHT22;10245;51.344;6.620;2023-12-29T05:15:31;10.80;79.10
20171;DHT22;10245;51.344;6.620;2023-12-29T05:17:55;10.70;78.90
20171;DHT22;10245;51.344;6.620;2023-12-29T05:20:19;10.90;78.30
20171;DHT22;10245;51.344;6.620;2023-12-29T05:22:43;10.90;78.10
20171;DHT22;10245;51.344;6.620;2023-12-29T05:25:07;10.90;78.30
20171;DHT22;10245;51.344;6.620;2023-12-29T05:27:30;10.90;78.10
20171;DHT22;10245;51.344;6.620;2023-12-29T05:29:56;10.80;78.30
20171;DHT22;10245;51.344;6.620;2023-12-29T05:32:21;10.90;77.90
20171;DHT22;10245;51.344;6.620;2023-12-29T05:34:44;10.80;78.40
20171;DHT22;10245;51.344;6.620;2023-12-29T05:37:08;10.80;78.20
20171;DHT22;10245;51.344;6.620;2023-12-29T05:39:31;10.80;78.00
20171;DHT22;10245;51.344;6.620;2023-12-29T05:41:55;10.80;78.10
20171;DHT22;10245;51.344;6.620;2023-12-29T05:44:19;10.80;78.00
20171;DHT22;10245;51.344;6.620;2023-12-29T05:46:46;10.80;78.20
20171;DHT22;10245;51.344;6.620;2023-12-29T05:49:11;10.80;78.00
20171;DHT22;10245;51.344;6.620;2023-12-29T05:51:34;10.80;78.50
20171;DHT22;10245;51.344;6.620;2023-12-29T05:53:58;10.80;78.40
20171;DHT22;10245;51.344;6.620;2023-12-29T05:56:22;10.70;78.50
20171;DHT22;10245;51.344;6.620;2023-12-29T05:58:48;10.70;78.80
20171;DHT22;10245;51.344;6.620;2023-12-29T06:01:12;10.80;78.20
20171;DHT22;10245;51.344;6.620;2023-12-29T06:03:36;10.70;78.60
20171;DHT22;10245;51.344;6.620;2023-12-29T06:06:01;10.80;78.50
20171;DHT22;10245;51.344;6.620;2023-12-29T06:08:24;10.60;79.00
20171;DHT22;10245;51.344;6.620;2023-12-29T06:10:48;10.70;78.90
20171;DHT22;10245;51.344;6.620;2023-12-29T06:13:11;10.60;79.30
20171;DHT22;10245;51.344;6.620;2023-12-29T06:15:34;10.60;79.20
20171;DHT22;10245;51.344;6.620;2023-12-29T06:17:59;10.50;79.50
20171;DHT22;10245;51.344;6.620;2023-12-29T06:20:23;10.50;79.60
20171;DHT22;10245;51.344;6.620;2023-12-29T06:22:48;10.50;79.80
20171;DHT22;10245;51.344;6.620;2023-12-29T06:25:12;10.50;79.80
20171;DHT22;10245;51.344;6.620;2023-12-29T06:27:35;10.60;79.40
20171;DHT22;10245;51.344;6.620;2023-12-29T06:30:01;10.50;79.60
20171;DHT22;10245;51.344;6.620;2023-12-29T06:32:24;10.60;79.50
20171;DHT22;10245;51.344;6.620;2023-12-29T06:34:48;10.50;80.00
20171;DHT22;10245;51.344;6.620;2023-12-29T06:37:11;10.60;79.80
20171;DHT22;10245;51.344;6.620;2023-12-29T06:39:36;10.60;79.70
20171;DHT22;10245;51.344;6.620;2023-12-29T06:42:01;10.60;79.90
20171;DHT22;10245;51.344;6.620;2023-12-29T06:44:25;10.60;79.70
20171;DHT22;10245;51.344;6.620;2023-12-29T06:46:48;10.60;79.60
20171;DHT22;10245;51.344;6.620;2023-12-29T06:49:12;10.70;79.70
20171;DHT22;10245;51.344;6.620;2023-12-29T06:51:37;10.80;79.40
20171;DHT22;10245;51.344;6.620;2023-12-29T06:54:03;10.70;79.70
20171;DHT22;10245;51.344;6.620;2023-12-29T06:56:28;10.70;79.50
20171;DHT22;10245;51.344;6.620;2023-12-29T06:58:51;10.60;79.80
20171;DHT22;10245;51.344;6.620;2023-12-29T07:01:15;10.60;80.70
20171;DHT22;10245;51.344;6.620;2023-12-29T07:03:39;10.50;82.50
20171;DHT22;10245;51.344;6.620;2023-12-29T07:06:03;10.30;83.40
20171;DHT22;10245;51.344;6.620;2023-12-29T07:08:27;10.30;83.80
20171;DHT22;10245;51.344;6.620;2023-12-29T07:10:51;10.20;84.70
20171;DHT22;10245;51.344;6.620;2023-12-29T07:13:16;10.30;84.50
20171;DHT22;10245;51.344;6.620;2023-12-29T07:15:41;10.20;85.00
20171;DHT22;10245;51.344;6.620;2023-12-29T07:18:05;10.30;84.80
20171;DHT22;10245;51.344;6.620;2023-12-29T07:20:29;10.10;85.40
20171;DHT22;10245;51.344;6.620;2023-12-29T07:22:53;10.00;86.50
20171;DHT22;10245;51.344;6.620;2023-12-29T07:25:16;10.00;86.70
20171;DHT22;10245;51.344;6.620;2023-12-29T07:27:40;10.00;86.40
20171;DHT22;10245;51.344;6.620;2023-12-29T07:30:07;10.00;87.20
20171;DHT22;10245;51.344;6.620;2023-12-29T07:32:31;10.00;87.30
20171;DHT22;10245;51.344;6.620;2023-12-29T07:34:54;9.90;87.30
20171;DHT22;10245;51.344;6.620;2023-12-29T07:37:20;9.90;87.30
20171;DHT22;10245;51.344;6.620;2023-12-29T07:39:44;9.90;87.40
20171;DHT22;10245;51.344;6.620;2023-12-29T07:42:09;9.90;87.20
20171;DHT22;10245;51.344;6.620;2023-12-29T07:44:33;10.00;87.20
20171;DHT22;10245;51.344;6.620;2023-12-29T07:46:58;10.00;87.10
20171;DHT22;10245;51.344;6.620;2023-12-29T07:49:22;10.00;87.00
20171;DHT22;10245;51.344;6.620;2023-12-29T07:51:46;10.00;86.90
20171;DHT22;10245;51.344;6.620;2023-12-29T07:54:10;9.90;87.60
20171;DHT22;10245;51.344;6.620;2023-12-29T07:56:33;10.00;87.00
20171;DHT22;10245;51.344;6.620;2023-12-29T07:58:58;10.10;86.60
20171;DHT22;10245;51.344;6.620;2023-12-29T08:01:21;10.00;87.00
20171;DHT22;10245;51.344;6.620;2023-12-29T08:03:46;10.00;87.30
20171;DHT22;10245;51.344;6.620;2023-12-29T08:06:10;10.00;87.30
20171;DHT22;10245;51.344;6.620;2023-12-29T08:08:34;10.00;87.50
20171;DHT22;10245;51.344;6.620;2023-12-29T08:10:58;10.00;87.80
20171;DHT22;10245;51.344;6.620;2023-12-29T08:13:22;10.00;88.10
20171;DHT22;10245;51.344;6.620;2023-12-29T08:15:45;9.90;88.50
20171;DHT22;10245;51.344;6.620;2023-12-29T08:18:08;9.90;88.60
20171;DHT22;10245;51.344;6.620;2023-12-29T08:20:33;9.90;88.40
20171;DHT22;10245;51.344;6.620;2023-12-29T08:22:56;9.90;88.90
20171;DHT22;10245;51.344;6.620;2023-12-29T08:25:19;9.90;88.70
20171;DHT22;10245;51.344;6.620;2023-12-29T08:27:43;9.90;88.80
20171;DHT22;10245;51.344;6.620;2023-12-29T08:30:07;9.90;88.90
20171;DHT22;10245;51.344;6.620;2023-12-29T08:32:31;9.90;89.00
20171;DHT22;10245;51.344;6.620;2023-12-29T08:34:55;9.80;88.90
20171;DHT22;10245;51.344;6.620;2023-12-29T08:37:21;9.90;88.90
20171;DHT22;10245;51.344;6.620;2023-12-29T08:39:44;9.90;88.90
20171;DHT22;10245;51.344;6.620;2023-12-29T08:42:07;9.90;88.60
20171;DHT22;10245;51.344;6.620;2023-12-29T08:44:30;9.90;88.50
20171;DHT22;10245;51.344;6.620;2023-12-29T08:46:55;10.00;88.30
20171;DHT22;10245;51.344;6.620;2023-12-29T08:49:18;9.90;88.70
20171;DHT22;10245;51.344;6.620;2023-12-29T08:51:42;9.90;88.80
20171;DHT22;10245;51.344;6.620;2023-12-29T08:54:08;9.90;88.60
20171;DHT22;10245;51.344;6.620;2023-12-29T08:56:31;10.00;88.70
20171;DHT22;10245;51.344;6.620;2023-12-29T08:58:55;10.00;88.90
20171;DHT22;10245;51.344;6.620;2023-12-29T09:01:18;10.00;88.60
20171;DHT22;10245;51.344;6.620;2023-12-29T09:03:42;10.00;88.30
20171;DHT22;10245;51.344;6.620;2023-12-29T09:06:05;10.00;88.30
20171;DHT22;10245;51.344;6.620;2023-12-29T09:08:31;10.10;88.00
20171;DHT22;10245;51.344;6.620;2023-12-29T09:10:55;10.10;88.30
20171;DHT22;10245;51.344;6.620;2023-12-29T09:13:19;10.10;88.50
20171;DHT22;10245;51.344;6.620;2023-12-29T09:15:44;10.10;88.30
20171;DHT22;10245;51.344;6.620;2023-12-29T09:18:07;10.10;88.10
20171;DHT22;10245;51.344;6.620;2023-12-29T09:20:32;10.10;88.30
20171;DHT22;10245;51.344;6.620;2023-12-29T09:22:55;10.10;88.50
20171;DHT22;10245;51.344;6.620;2023-12-29T09:25:20;10.10;88.60
20171;DHT22;10245;51.344;6.620;2023-12-29T09:27:44;10.10;88.30
20171;DHT22;10245;51.344;6.620;2023-12-29T09:30:11;10.20;88.10
20171;DHT22;10245;51.344;6.620;2023-12-29T09:32:34;10.20;88.30
20171;DHT22;10245;51.344;6.620;2023-12-29T09:34:58;10.10;88.70
20171;DHT22;10245;51.344;6.620;2023-12-29T09:37:22;10.10;88.80
20171;DHT22;10245;51.344;6.620;2023-12-29T09:39:45;10.10;88.70
20171;DHT22;10245;51.344;6.620;2023-12-29T09:42:14;10.10;89.00
20171;DHT22;10245;51.344;6.620;2023-12-29T09:44:42;10.10;89.40
20171;DHT22;10245;51.344;6.620;2023-12-29T09:47:08;10.00;89.80
20171;DHT22;10245;51.344;6.620;2023-12-29T09:49:37;10.00;90.10
20171;DHT22;10245;51.344;6.620;2023-12-29T09:52:02;10.00;90.60
20171;DHT22;10245;51.344;6.620;2023-12-29T09:54:26;9.90;91.00
20171;DHT22;10245;51.344;6.620;2023-12-29T09:56:50;9.90;91.70
20171;DHT22;10245;51.344;6.620;2023-12-29T09:59:16;9.80;91.90
20171;DHT22;10245;51.344;6.620;2023-12-29T10:01:41;9.80;92.40
20171;DHT22;10245;51.344;6.620;2023-12-29T10:04:06;9.70;92.80
20171;DHT22;10245;51.344;6.620;2023-12-29T10:06:31;9.80;92.80
20171;DHT22;10245;51.344;6.620;2023-12-29T10:08:59;9.70;92.60
20171;DHT22;10245;51.344;6.620;2023-12-29T10:11:26;9.80;92.90
20171;DHT22;10245;51.344;6.620;2023-12-29T10:13:50;9.70;92.90
20171;DHT22;10245;51.344;6.620;2023-12-29T10:16:24;9.70;93.00
20171;DHT22;10245;51.344;6.620;2023-12-29T10:18:58;9.80;93.40
20171;DHT22;10245;51.344;6.620;2023-12-29T10:21:28;9.70;93.30
20171;DHT22;10245;51.344;6.620;2023-12-29T10:23:56;9.70;93.20
20171;DHT22;10245;51.344;6.620;2023-12-29T10:26:22;9.70;93.30
20171;DHT22;10245;51.344;6.620;2023-12-29T10:28:47;9.70;93.10
20171;DHT22;10245;51.344;6.620;2023-12-29T10:31:15;9.80;92.70
20171;DHT22;10245;51.344;6.620;2023-12-29T10:33:39;9.90;92.10
20171;DHT22;10245;51.344;6.620;2023-12-29T10:36:04;9.90;91.60
20171;DHT22;10245;51.344;6.620;2023-12-29T10:38:31;10.00;91.50
20171;DHT22;10245;51.344;6.620;2023-12-29T10:40:54;10.00;91.00
20171;DHT22;10245;51.344;6.620;2023-12-29T10:43:22;10.10;90.60
20171;DHT22;10245;51.344;6.620;2023-12-29T10:45:46;10.10;89.90
20171;DHT22;10245;51.344;6.620;2023-12-29T10:48:09;10.20;89.50
20171;DHT22;10245;51.344;6.620;2023-12-29T10:50:42;10.20;90.10
20171;DHT22;10245;51.344;6.620;2023-12-29T10:53:15;10.20;89.80
20171;DHT22;10245;51.344;6.620;2023-12-29T10:55:39;10.20;90.30
20171;DHT22;10245;51.344;6.620;2023-12-29T10:58:03;10.30;90.20
20171;DHT22;10245;51.344;6.620;2023-12-29T11:00:29;10.30;90.40
20171;DHT22;10245;51.344;6.620;2023-12-29T11:02:54;10.40;89.90
20171;DHT22;10245;51.344;6.620;2023-12-29T11:05:25;10.40;89.90
20171;DHT22;10245;51.344;6.620;2023-12-29T11:07:49;10.40;90.00
20171;DHT22;10245;51.344;6.620;2023-12-29T11:10:17;10.50;89.60
20171;DHT22;10245;51.344;6.620;2023-12-29T11:12:40;10.50;89.80
20171;DHT22;10245;51.344;6.620;2023-12-29T11:15:05;10.50;89.70
20171;DHT22;10245;51.344;6.620;2023-12-29T11:17:30;10.50;89.70
20171;DHT22;10245;51.344;6.620;2023-12-29T11:19:55;10.50;89.50
20171;DHT22;10245;51.344;6.620;2023-12-29T11:22:22;10.50;89.30
20171;DHT22;10245;51.344;6.620;2023-12-29T11:24:47;10.60;89.20
20171;DHT22;10245;51.344;6.620;2023-12-29T11:27:12;10.60;89.30
20171;DHT22;10245;51.344;6.620;2023-12-29T11:29:37;10.70;89.30
20171;DHT22;10245;51.344;6.620;2023-12-29T11:32:01;10.60;89.40
20171;DHT22;10245;51.344;6.620;2023-12-29T11:34:34;10.60;89.40
20171;DHT22;10245;51.344;6.620;2023-12-29T11:37:11;10.60;89.30
20171;DHT22;10245;51.344;6.620;2023-12-29T11:39:50;10.70;88.90
20171;DHT22;10245;51.344;6.620;2023-12-29T11:42:22;10.80;89.40
20171;DHT22;10245;51.344;6.620;2023-12-29T11:44:51;10.70;89.20
20171;DHT22;10245;51.344;6.620;2023-12-29T11:47:36;10.70;89.20
20171;DHT22;10245;51.344;6.620;2023-12-29T11:50:01;10.70;89.30
20171;DHT22;10245;51.344;6.620;2023-12-29T11:52:33;10.70;89.40
20171;DHT22;10245;51.344;6.620;2023-12-29T11:55:07;10.60;89.60
20171;DHT22;10245;51.344;6.620;2023-12-29T11:57:33;10.70;89.40
20171;DHT22;10245;51.344;6.620;2023-12-29T11:59:58;10.70;89.50
20171;DHT22;10245;51.344;6.620;2023-12-29T12:02:27;10.60;89.80
20171;DHT22;10245;51.344;6.620;2023-12-29T12:04:50;10.60;89.80
20171;DHT22;10245;51.344;6.620;2023-12-29T12:07:16;10.60;90.20
20171;DHT22;10245;51.344;6.620;2023-12-29T12:09:40;10.50;90.80
20171;DHT22;10245;51.344;6.620;2023-12-29T12:12:05;10.50;91.10
20171;DHT22;10245;51.344;6.620;2023-12-29T12:15:01;10.40;90.80
20171;DHT22;10245;51.344;6.620;2023-12-29T12:17:28;10.40;91.10
20171;DHT22;10245;51.344;6.620;2023-12-29T12:19:53;10.30;91.60
20171;DHT22;10245;51.344;6.620;2023-12-29T12:22:18;10.10;91.40
20171;DHT22;10245;51.344;6.620;2023-12-29T12:24:43;10.00;92.00
20171;DHT22;10245;51.344;6.620;2023-12-29T12:27:10;9.90;92.10
20171;DHT22;10245;51.344;6.620;2023-12-29T12:29:33;9.80;92.70
20171;DHT22;10245;51.344;6.620;2023-12-29T12:31:58;9.80;93.10
20171;DHT22;10245;51.344;6.620;2023-12-29T12:34:22;9.80;93.40
20171;DHT22;10245;51.344;6.620;2023-12-29T12:36:50;9.70;93.50
20171;DHT22;10245;51.344;6.620;2023-12-29T12:39:14;9.80;93.60
20171;DHT22;10245;51.344;6.620;2023-12-29T12:41:37;9.80;93.60
20171;DHT22;10245;51.344;6.620;2023-12-29T12:44:08;9.90;93.20
20171;DHT22;10245;51.344;6.620;2023-12-29T12:46:34;10.00;93.00
20171;DHT22;10245;51.344;6.620;2023-12-29T12:49:00;10.10;93.10
20171;DHT22;10245;51.344;6.620;2023-12-29T12:51:23;10.10;93.00
20171;DHT22;10245;51.344;6.620;2023-12-29T12:53:47;10.10;93.00
20171;DHT22;10245;51.344;6.620;2023-12-29T12:56:11;10.20;93.10
20171;DHT22;10245;51.344;6.620;2023-12-29T12:58:34;10.20;93.00
20171;DHT22;10245;51.344;6.620;2023-12-29T13:00:59;10.20;92.90
20171;DHT22;10245;51.344;6.620;2023-12-29T13:03:27;10.30;92.90
20171;DHT22;10245;51.344;6.620;2023-12-29T13:05:52;10.20;92.90
20171;DHT22;10245;51.344;6.620;2023-12-29T13:08:17;10.20;93.00
20171;DHT22;10245;51.344;6.620;2023-12-29T13:10:55;10.20;93.00
20171;DHT22;10245;51.344;6.620;2023-12-29T13:13:18;10.30;92.90
20171;DHT22;10245;51.344;6.620;2023-12-29T13:15:47;10.30;92.70
20171;DHT22;10245;51.344;6.620;2023-12-29T13:18:11;10.30;92.70
20171;DHT22;10245;51.344;6.620;2023-12-29T13:20:43;10.30;92.50
20171;DHT22;10245;51.344;6.620;2023-12-29T13:23:09;10.40;92.40
20171;DHT22;10245;51.344;6.620;2023-12-29T13:25:33;10.30;92.40
20171;DHT22;10245;51.344;6.620;2023-12-29T13:27:57;10.40;92.00
20171;DHT22;10245;51.344;6.620;2023-12-29T13:30:21;10.40;92.30
20171;DHT22;10245;51.344;6.620;2023-12-29T13:32:45;10.50;92.30
20171;DHT22;10245;51.344;6.620;2023-12-29T13:35:17;10.50;91.30
20171;DHT22;10245;51.344;6.620;2023-12-29T13:37:45;10.50;91.40
20171;DHT22;10245;51.344;6.620;2023-12-29T13:40:16;10.50;91.20
20171;DHT22;10245;51.344;6.620;2023-12-29T13:42:48;10.50;91.30
20171;DHT22;10245;51.344;6.620;2023-12-29T13:45:15;10.50;91.10
20171;DHT22;10245;51.344;6.620;2023-12-29T13:47:40;10.50;90.80
20171;DHT22;10245;51.344;6.620;2023-12-29T13:50:04;10.50;90.80
20171;DHT22;10245;51.344;6.620;2023-12-29T13:52:29;10.60;90.50
20171;DHT22;10245;51.344;6.620;2023-12-29T13:54:52;10.60;90.00
20171;DHT22;10245;51.344;6.620;2023-12-29T13:57:17;10.60;89.30
20171;DHT22;10245;51.344;6.620;2023-12-29T13:59:42;10.70;89.50
20171;DHT22;10245;51.344;6.620;2023-12-29T14:02:26;10.60;89.90
20171;DHT22;10245;51.344;6.620;2023-12-29T14:05:11;10.60;89.80
20171;DHT22;10245;51.344;6.620;2023-12-29T14:07:44;10.60;89.10
20171;DHT22;10245;51.344;6.620;2023-12-29T14:10:09;10.60;89.10
20171;DHT22;10245;51.344;6.620;2023-12-29T14:12:36;10.70;88.50
20171;DHT22;10245;51.344;6.620;2023-12-29T14:15:03;10.70;88.50
20171;DHT22;10245;51.344;6.620;2023-12-29T14:17:28;10.60;88.80
20171;DHT22;10245;51.344;6.620;2023-12-29T14:19:51;10.70;88.10
20171;DHT22;10245;51.344;6.620;2023-12-29T14:22:22;10.60;87.80
20171;DHT22;10245;51.344;6.620;2023-12-29T14:24:59;10.60;88.20
20171;DHT22;10245;51.344;6.620;2023-12-29T14:27:24;10.60;87.50
20171;DHT22;10245;51.344;6.620;2023-12-29T14:29:49;10.60;87.40
20171;DHT22;10245;51.344;6.620;2023-12-29T14:32:12;10.50;87.10
20171;DHT22;10245;51.344;6.620;2023-12-29T14:34:35;10.50;87.70
20171;DHT22;10245;51.344;6.620;2023-12-29T14:37:01;10.50;87.30
20171;DHT22;10245;51.344;6.620;2023-12-29T14:39:27;10.50;87.00
20171;DHT22;10245;51.344;6.620;2023-12-29T14:41:50;10.50;87.40
20171;DHT22;10245;51.344;6.620;2023-12-29T14:44:15;10.40;87.90
20171;DHT22;10245;51.344;6.620;2023-12-29T14:46:40;10.40;87.40
20171;DHT22;10245;51.344;6.620;2023-12-29T14:49:03;10.40;87.80
20171;DHT22;10245;51.344;6.620;2023-12-29T14:51:28;10.30;87.90
20171;DHT22;10245;51.344;6.620;2023-12-29T14:53:51;10.20;88.60
20171;DHT22;10245;51.344;6.620;2023-12-29T14:56:15;10.10;89.20
20171;DHT22;10245;51.344;6.620;2023-12-29T14:58:39;10.10;89.10
20171;DHT22;10245;51.344;6.620;2023-12-29T15:01:04;10.10;89.20
20171;DHT22;10245;51.344;6.620;2023-12-29T15:03:30;10.10;89.20
20171;DHT22;10245;51.344;6.620;2023-12-29T15:05:54;10.10;89.20
20171;DHT22;10245;51.344;6.620;2023-12-29T15:08:20;10.10;89.40
20171;DHT22;10245;51.344;6.620;2023-12-29T15:10:43;10.10;89.90
20171;DHT22;10245;51.344;6.620;2023-12-29T15:13:07;10.00;90.50
20171;DHT22;10245;51.344;6.620;2023-12-29T15:15:32;10.00;90.60
20171;DHT22;10245;51.344;6.620;2023-12-29T15:17:56;10.00;91.00